createdAt,value
2023-03-29T00:02:20.991Z,-1.24
2023-03-29T00:05:26.295Z,-1.25
2023-03-29T00:08:32.071Z,-1.10
2023-03-29T00:11:36.675Z,-1.33
2023-03-29T00:14:41.178Z,-1.39
2023-03-29T00:17:46.153Z,-1.48
2023-03-29T00:20:58.142Z,-1.26
2023-03-29T00:24:02.673Z,-1.41
2023-03-29T00:27:07.491Z,-1.61
2023-03-29T00:30:12.506Z,-1.46
2023-03-29T00:33:21.501Z,-1.44
2023-03-29T00:36:26.587Z,-1.42
2023-03-29T00:39:31.194Z,-1.12
2023-03-29T00:42:36.019Z,-1.36
2023-03-29T00:45:42.286Z,-1.01
2023-03-29T00:48:47.328Z,-1.42
2023-03-29T00:51:52.150Z,-1.33
2023-03-29T00:55:02.731Z,-1.10
2023-03-29T00:58:12.947Z,-1.44
2023-03-29T01:01:26.001Z,-1.26
2023-03-29T01:04:53.000Z,-1.34
2023-03-29T01:08:03.316Z,-1.80
2023-03-29T01:11:37.076Z,-1.86
2023-03-29T01:14:48.767Z,-1.67
2023-03-29T01:17:55.690Z,-1.94
2023-03-29T01:21:14.785Z,-1.50
2023-03-29T01:24:41.904Z,-1.36
2023-03-29T01:27:53.236Z,-1.39
2023-03-29T01:31:08.291Z,-1.54
2023-03-29T01:34:16.322Z,-1.67
2023-03-29T01:37:27.860Z,-1.50
2023-03-29T01:40:33.528Z,-1.56
2023-03-29T01:43:48.685Z,-1.31
2023-03-29T01:47:08.845Z,-1.51
2023-03-29T01:50:36.552Z,-1.46
2023-03-29T01:53:48.479Z,-1.79
2023-03-29T01:56:53.649Z,-1.03
2023-03-29T02:00:00.469Z,-1.11
2023-03-29T02:03:09.775Z,-1.33
2023-03-29T02:06:18.840Z,-1.47
2023-03-29T02:09:23.852Z,-1.25
2023-03-29T02:12:28.819Z,-1.23
2023-03-29T02:15:33.504Z,-0.69
2023-03-29T02:18:44.173Z,-1.31
2023-03-29T02:22:08.270Z,-1.44
2023-03-29T02:25:13.071Z,-1.26
2023-03-29T02:28:17.971Z,-1.17
2023-03-29T02:31:35.633Z,-0.71
2023-03-29T02:34:49.902Z,-1.20
2023-03-29T02:37:57.363Z,-1.34
2023-03-29T02:41:02.855Z,-1.42
2023-03-29T02:44:14.108Z,-1.10
2023-03-29T02:47:24.517Z,-0.62
2023-03-29T02:50:35.865Z,-0.71
2023-03-29T02:53:49.821Z,-1.11
2023-03-29T02:57:00.637Z,-1.01
2023-03-29T03:00:09.801Z,-1.56
2023-03-29T03:03:15.600Z,-0.53
2023-03-29T03:06:22.866Z,-0.82
2023-03-29T03:09:28.440Z,-0.73
2023-03-29T03:12:32.941Z,-0.53
2023-03-29T03:15:42.586Z,-1.21
2023-03-29T03:18:48.679Z,-1.13
2023-03-29T03:21:53.247Z,-0.91
2023-03-29T03:24:59.267Z,-1.11
2023-03-29T03:28:04.956Z,-0.93
2023-03-29T03:31:10.188Z,-1.20
2023-03-29T03:34:53.081Z,-1.10
2023-03-29T03:38:01.648Z,-1.16
2023-03-29T03:41:07.471Z,-0.64
2023-03-29T03:44:13.211Z,-0.72
2023-03-29T03:47:18.230Z,-0.71
2023-03-29T03:50:23.374Z,-0.72
2023-03-29T03:53:28.378Z,-0.93
2023-03-29T03:57:02.281Z,-0.52
2023-03-29T04:00:20.409Z,-0.56
2023-03-29T04:03:37.386Z,-0.93
2023-03-29T04:06:43.755Z,-1.02
2023-03-29T04:10:09.199Z,-0.72
2023-03-29T04:13:25.627Z,-0.83
2023-03-29T04:16:48.723Z,-0.79
2023-03-29T04:20:13.421Z,-1.20
2023-03-29T04:23:19.226Z,-0.92
2023-03-29T04:26:24.246Z,-0.80
2023-03-29T04:29:34.862Z,-0.62
2023-03-29T04:32:51.795Z,-0.49
2023-03-29T04:35:57.052Z,-0.67
2023-03-29T04:39:01.933Z,-0.61
2023-03-29T04:42:07.416Z,-0.74
2023-03-29T04:45:17.876Z,-0.71
2023-03-29T04:48:48.671Z,-0.69
2023-03-29T04:51:54.394Z,-0.93
2023-03-29T04:55:04.079Z,-0.67
2023-03-29T04:58:32.855Z,-0.73
2023-03-29T05:01:39.566Z,-0.46
2023-03-29T05:04:44.175Z,-0.65
2023-03-29T05:07:52.965Z,-0.90
2023-03-29T05:11:02.160Z,-0.91
2023-03-29T05:14:08.625Z,-0.97
2023-03-29T05:17:13.290Z,-1.07
2023-03-29T05:20:18.117Z,-1.20
2023-03-29T05:23:25.938Z,-1.09
2023-03-29T05:26:51.676Z,-1.13
2023-03-29T05:29:56.574Z,-1.14
2023-03-29T05:33:16.974Z,-1.01
2023-03-29T05:36:22.126Z,-0.55
2023-03-29T05:39:28.146Z,-0.60
2023-03-29T05:42:33.116Z,-0.77
2023-03-29T05:45:45.092Z,-0.82
2023-03-29T05:48:49.750Z,-0.67
2023-03-29T05:51:57.053Z,-0.34
2023-03-29T05:55:04.234Z,-0.17
2023-03-29T05:58:10.302Z,-0.74
2023-03-29T06:01:15.339Z,-0.49
2023-03-29T06:04:31.917Z,-0.88
2023-03-29T06:08:03.183Z,-0.74
2023-03-29T06:11:26.633Z,-0.67
2023-03-29T06:14:58.320Z,-0.18
2023-03-29T06:18:10.796Z,-0.54
2023-03-29T06:21:16.794Z,-0.55
2023-03-29T06:24:21.563Z,-0.67
2023-03-29T06:27:32.777Z,-0.65
2023-03-29T06:30:38.249Z,-0.59
2023-03-29T06:33:43.565Z,-0.36
2023-03-29T06:37:08.505Z,-0.52
2023-03-29T06:40:13.478Z,-0.91
2023-03-29T06:43:22.056Z,-0.76
2023-03-29T06:46:43.711Z,-0.91
2023-03-29T06:49:48.349Z,-0.71
2023-03-29T06:53:11.563Z,-0.15
2023-03-29T06:56:17.696Z,-0.21
2023-03-29T06:59:33.373Z,-0.45
2023-03-29T07:03:06.501Z,-0.32
2023-03-29T07:06:12.248Z,-0.34
2023-03-29T07:09:20.394Z,-0.29
2023-03-29T07:12:46.297Z,-0.31
2023-03-29T07:15:53.130Z,-0.30
2023-03-29T07:19:17.565Z,-0.23
2023-03-29T07:22:33.994Z,-0.04
2023-03-29T07:25:39.722Z,0.13
2023-03-29T07:28:44.600Z,0.58
2023-03-29T07:31:49.373Z,0.65
2023-03-29T07:35:27.227Z,0.42
2023-03-29T07:38:32.516Z,0.44
2023-03-29T07:41:41.723Z,0.14
2023-03-29T07:44:50.547Z,0.49
2023-03-29T07:47:57.697Z,0.33
2023-03-29T07:51:06.391Z,0.20
2023-03-29T07:54:22.758Z,0.54
2023-03-29T07:57:49.299Z,0.47
2023-03-29T08:00:55.112Z,0.94
2023-03-29T08:04:19.778Z,0.83
2023-03-29T08:07:50.603Z,0.74
2023-03-29T08:11:09.193Z,0.78
2023-03-29T08:14:31.511Z,0.61
2023-03-29T08:18:02.335Z,1.03
2023-03-29T08:21:07.329Z,1.36
2023-03-29T08:24:11.895Z,1.40
2023-03-29T08:27:23.155Z,1.33
2023-03-29T08:30:27.903Z,1.61
2023-03-29T08:33:34.985Z,1.41
2023-03-29T08:37:05.033Z,1.89
2023-03-29T08:40:21.960Z,1.76
2023-03-29T08:44:11.350Z,1.87
2023-03-29T08:47:37.470Z,1.73
2023-03-29T08:50:53.199Z,2.05
2023-03-29T08:54:25.693Z,2.22
2023-03-29T08:57:51.710Z,2.15
2023-03-29T09:01:09.177Z,2.05
2023-03-29T09:04:28.102Z,2.61
2023-03-29T09:07:40.631Z,2.84
2023-03-29T09:10:54.972Z,2.69
2023-03-29T09:14:24.522Z,2.73
2023-03-29T09:17:39.055Z,2.80
2023-03-29T09:20:53.583Z,3.05
2023-03-29T09:24:37.393Z,3.22
2023-03-29T09:27:58.142Z,3.47
2023-03-29T09:31:39.087Z,3.80
2023-03-29T09:34:49.085Z,3.85
2023-03-29T09:37:57.795Z,3.63
2023-03-29T09:41:08.957Z,3.76
2023-03-29T09:44:30.159Z,4.06
2023-03-29T09:47:46.161Z,4.01
2023-03-29T09:50:52.288Z,3.67
2023-03-29T09:54:00.146Z,4.19
2023-03-29T09:57:43.723Z,4.27
2023-03-29T10:00:51.096Z,4.00
2023-03-29T10:03:56.686Z,4.31
2023-03-29T10:07:01.498Z,4.17
2023-03-29T10:10:10.667Z,4.28
2023-03-29T10:13:35.883Z,4.25
2023-03-29T10:16:47.633Z,4.28
2023-03-29T10:19:57.253Z,4.59
2023-03-29T10:23:01.882Z,5.00
2023-03-29T10:26:16.681Z,5.04
2023-03-29T10:29:23.660Z,5.24
2023-03-29T10:32:33.476Z,5.16
2023-03-29T10:35:41.578Z,5.52
2023-03-29T10:38:46.484Z,5.16
2023-03-29T10:41:52.977Z,4.95
2023-03-29T10:44:59.642Z,5.40
2023-03-29T10:48:06.940Z,5.83
2023-03-29T10:51:14.547Z,5.83
2023-03-29T10:54:23.376Z,5.87
2023-03-29T10:57:37.895Z,5.84
2023-03-29T11:00:51.086Z,6.37
2023-03-29T11:04:36.335Z,5.99
2023-03-29T11:07:57.033Z,5.89
2023-03-29T11:11:13.819Z,6.27
2023-03-29T11:14:45.045Z,5.90
2023-03-29T11:18:01.267Z,6.40
2023-03-29T11:21:31.533Z,6.17
2023-03-29T11:24:53.734Z,6.54
2023-03-29T11:28:07.609Z,6.17
2023-03-29T11:31:30.449Z,6.77
2023-03-29T11:34:59.495Z,7.05
2023-03-29T11:38:32.598Z,6.96
2023-03-29T11:41:45.056Z,6.98
2023-03-29T11:44:54.922Z,7.50
2023-03-29T11:48:05.055Z,7.91
2023-03-29T11:51:26.149Z,8.15
2023-03-29T11:54:48.590Z,7.87
2023-03-29T11:58:01.353Z,8.53
2023-03-29T12:01:35.224Z,7.99
2023-03-29T12:04:47.149Z,7.85
2023-03-29T12:08:03.641Z,8.65
2023-03-29T12:11:27.095Z,9.12
2023-03-29T12:14:52.950Z,9.02
2023-03-29T12:18:07.058Z,9.42
2023-03-29T12:21:19.909Z,8.92
2023-03-29T12:24:26.857Z,8.01
2023-03-29T12:27:37.382Z,8.69
2023-03-29T12:30:51.736Z,8.39
2023-03-29T12:34:17.573Z,7.45
2023-03-29T12:37:51.146Z,8.06
2023-03-29T12:41:37.699Z,7.97
2023-03-29T12:45:01.683Z,7.98
2023-03-29T12:48:18.484Z,8.62
2023-03-29T12:51:30.687Z,8.59
2023-03-29T12:54:35.361Z,8.23
2023-03-29T12:57:44.110Z,8.53
2023-03-29T13:01:05.591Z,7.98
2023-03-29T13:04:20.080Z,8.34
2023-03-29T13:07:27.518Z,8.90
2023-03-29T13:10:42.263Z,8.80
2023-03-29T13:13:50.853Z,8.94
2023-03-29T13:17:15.611Z,9.27
2023-03-29T13:20:52.563Z,8.90
2023-03-29T13:24:29.947Z,8.67
2023-03-29T13:28:04.278Z,9.43
2023-03-29T13:31:23.428Z,8.87
2023-03-29T13:34:42.246Z,9.33
2023-03-29T13:38:08.345Z,9.45
2023-03-29T13:41:44.472Z,9.32
2023-03-29T13:44:49.250Z,9.92
2023-03-29T13:48:21.452Z,9.81
2023-03-29T13:51:58.265Z,9.74
2023-03-29T13:58:33.134Z,9.05
2023-03-29T14:01:48.468Z,9.04
2023-03-29T14:04:53.715Z,9.35
2023-03-29T14:08:08.595Z,9.30
2023-03-29T14:11:44.322Z,9.17
2023-03-29T14:14:58.880Z,9.16
2023-03-29T14:18:04.278Z,9.49
2023-03-29T14:21:12.418Z,10.17
2023-03-29T14:24:21.922Z,9.72
2023-03-29T14:27:31.675Z,9.80
2023-03-29T14:30:36.234Z,10.48
2023-03-29T14:33:41.510Z,10.26
2023-03-29T14:36:54.073Z,10.25
2023-03-29T14:39:59.460Z,10.15
2023-03-29T14:43:07.959Z,10.02
2023-03-29T14:46:17.145Z,10.10
2023-03-29T14:49:23.422Z,10.20
2023-03-29T14:52:29.817Z,10.56
2023-03-29T14:55:36.450Z,10.83
2023-03-29T14:58:46.572Z,10.39
2023-03-29T15:01:51.446Z,10.12
2023-03-29T15:05:04.648Z,9.98
2023-03-29T15:08:16.179Z,9.43
2023-03-29T15:11:26.530Z,9.16
2023-03-29T15:14:37.132Z,9.74
2023-03-29T15:17:51.664Z,9.78
2023-03-29T15:20:57.092Z,9.23
2023-03-29T15:24:04.581Z,9.38
2023-03-29T15:27:18.193Z,9.25
2023-03-29T15:30:34.031Z,9.30
2023-03-29T15:33:41.637Z,8.56
2023-03-29T15:36:46.472Z,8.72
2023-03-29T15:39:51.613Z,8.96
2023-03-29T15:42:56.466Z,9.33
2023-03-29T15:46:01.169Z,9.14
2023-03-29T15:49:06.016Z,9.62
2023-03-29T15:52:10.579Z,9.40
2023-03-29T15:55:15.229Z,9.41
2023-03-29T15:58:24.726Z,9.50
2023-03-29T16:01:35.471Z,8.84
2023-03-29T16:04:40.285Z,8.83
2023-03-29T16:07:45.295Z,8.76
2023-03-29T16:10:49.956Z,8.43
2023-03-29T16:13:55.650Z,8.93
2023-03-29T16:17:01.107Z,8.63
2023-03-29T16:20:07.157Z,8.37
2023-03-29T16:23:12.050Z,8.15
2023-03-29T16:26:17.340Z,8.30
2023-03-29T16:29:22.913Z,8.12
2023-03-29T16:32:27.512Z,7.72
2023-03-29T16:35:35.397Z,7.79
2023-03-29T16:38:40.616Z,7.86
2023-03-29T16:41:48.303Z,8.08
2023-03-29T16:44:54.512Z,8.00
2023-03-29T16:47:59.001Z,7.84
2023-03-29T16:51:03.963Z,7.72
2023-03-29T16:54:09.225Z,7.75
2023-03-29T16:57:13.884Z,7.44
2023-03-29T17:00:20.172Z,7.58
2023-03-29T17:03:24.926Z,7.22
2023-03-29T17:06:31.844Z,7.47
2023-03-29T17:09:36.444Z,7.22
2023-03-29T17:12:40.960Z,7.32
2023-03-29T17:15:45.766Z,7.30
2023-03-29T17:18:50.574Z,6.81
2023-03-29T17:21:55.139Z,6.52
2023-03-29T17:24:59.624Z,6.59
2023-03-29T17:28:04.658Z,6.57
2023-03-29T17:31:09.332Z,6.73
2023-03-29T17:34:15.360Z,6.45
2023-03-29T17:37:23.869Z,6.80
2023-03-29T17:40:28.522Z,6.57
2023-03-29T17:43:33.129Z,6.69
2023-03-29T17:46:38.654Z,6.55
2023-03-29T17:49:43.225Z,6.52
2023-03-29T17:52:49.128Z,6.63
2023-03-29T17:55:53.667Z,6.51
2023-03-29T17:58:58.303Z,6.68
2023-03-29T18:02:05.365Z,6.39
2023-03-29T18:05:10.654Z,6.37
2023-03-29T18:08:16.571Z,6.28
2023-03-29T18:11:22.792Z,6.33
2023-03-29T18:14:27.501Z,6.30
2023-03-29T18:17:32.001Z,5.97
2023-03-29T18:20:36.918Z,6.27
2023-03-29T18:23:44.961Z,6.43
2023-03-29T18:26:49.510Z,6.21
2023-03-29T18:29:55.333Z,6.59
2023-03-29T18:32:59.904Z,6.63
2023-03-29T18:36:10.832Z,6.67
2023-03-29T18:39:17.686Z,6.67
2023-03-29T18:42:22.240Z,6.32
2023-03-29T18:45:26.846Z,6.13
2023-03-29T18:48:33.605Z,6.30
2023-03-29T18:51:38.204Z,6.44
2023-03-29T18:54:42.751Z,6.37
2023-03-29T18:57:47.332Z,5.88
2023-03-29T19:00:51.896Z,6.02
2023-03-29T19:03:57.311Z,6.08
2023-03-29T19:07:02.878Z,5.97
2023-03-29T19:10:08.322Z,6.12
2023-03-29T19:13:13.241Z,5.89
2023-03-29T19:16:17.853Z,5.93
2023-03-29T19:19:23.756Z,5.97
2023-03-29T19:22:28.344Z,5.84
2023-03-29T19:25:33.244Z,5.25
2023-03-29T19:28:37.965Z,5.54
2023-03-29T19:31:42.741Z,5.43
2023-03-29T19:34:47.671Z,5.52
2023-03-29T19:37:52.208Z,5.13
2023-03-29T19:40:57.020Z,5.53
2023-03-29T19:44:02.008Z,5.37
2023-03-29T19:47:06.863Z,5.14
2023-03-29T19:50:12.227Z,5.20
2023-03-29T19:53:16.947Z,4.99
2023-03-29T19:56:23.453Z,5.03
2023-03-29T19:59:28.099Z,4.78
2023-03-29T20:02:32.752Z,5.16
2023-03-29T20:05:38.814Z,5.04
2023-03-29T20:08:44.344Z,4.91
2023-03-29T20:11:49.178Z,4.88
2023-03-29T20:14:53.789Z,4.97
2023-03-29T20:18:00.255Z,5.05
2023-03-29T20:21:06.331Z,5.08
2023-03-29T20:24:11.248Z,4.99
2023-03-29T20:27:15.838Z,5.03
2023-03-29T20:30:20.483Z,5.10
2023-03-29T20:33:25.329Z,5.09
2023-03-29T20:36:30.598Z,5.43
2023-03-29T20:39:35.607Z,5.11
2023-03-29T20:42:40.449Z,5.13
2023-03-29T20:45:53.514Z,5.33
2023-03-29T20:49:04.776Z,5.27
2023-03-29T20:52:15.285Z,5.44
2023-03-29T20:55:22.236Z,5.13
2023-03-29T20:58:27.992Z,5.32
2023-03-29T21:01:35.058Z,5.22
2023-03-29T21:04:39.655Z,5.19
2023-03-29T21:07:44.966Z,5.29
2023-03-29T21:10:49.511Z,5.10
2023-03-29T21:13:54.051Z,4.87
2023-03-29T21:16:58.971Z,5.08
2023-03-29T21:20:08.240Z,4.72
2023-03-29T21:23:13.306Z,5.23
2023-03-29T21:26:17.920Z,4.87
2023-03-29T21:29:22.646Z,4.94
2023-03-29T21:32:27.236Z,5.12
2023-03-29T21:35:33.343Z,4.96
2023-03-29T21:38:37.939Z,4.75
2023-03-29T21:41:42.509Z,4.58
2023-03-29T21:44:47.126Z,4.70
2023-03-29T21:47:52.071Z,4.96
2023-03-29T21:50:56.749Z,4.88
2023-03-29T21:54:01.438Z,4.90
2023-03-29T21:57:06.267Z,5.02
2023-03-29T22:00:12.803Z,5.00
2023-03-29T22:03:17.487Z,5.17
2023-03-29T22:06:22.238Z,5.02
2023-03-29T22:09:26.885Z,4.58
2023-03-29T22:12:34.365Z,4.59
2023-03-29T22:15:39.166Z,4.43
2023-03-29T22:18:46.746Z,4.73
2023-03-29T22:21:51.479Z,4.82
2023-03-29T22:24:56.093Z,4.75
2023-03-29T22:28:00.691Z,4.74
2023-03-29T22:31:08.212Z,4.71
2023-03-29T22:34:12.761Z,4.86
2023-03-29T22:37:17.909Z,4.89
2023-03-29T22:40:22.504Z,4.87
2023-03-29T22:43:27.119Z,4.73
2023-03-29T22:46:31.873Z,4.97
2023-03-29T22:49:36.682Z,4.70
2023-03-29T22:52:41.237Z,4.80
2023-03-29T22:55:46.249Z,4.91
2023-03-29T22:58:51.045Z,4.93
2023-03-29T23:01:55.638Z,4.89
2023-03-29T23:05:00.671Z,4.92
2023-03-29T23:08:06.828Z,4.71
2023-03-29T23:11:11.501Z,4.53
2023-03-29T23:14:16.043Z,4.81
2023-03-29T23:17:20.758Z,4.80
2023-03-29T23:20:25.448Z,4.94
2023-03-29T23:23:30.228Z,4.88
2023-03-29T23:26:35.659Z,4.67
2023-03-29T23:29:40.228Z,4.74
2023-03-29T23:32:44.858Z,4.39
2023-03-29T23:35:49.467Z,4.55
2023-03-29T23:38:54.049Z,4.46
2023-03-29T23:41:58.850Z,4.61
2023-03-29T23:45:03.526Z,4.44
2023-03-29T23:48:08.629Z,4.62
2023-03-29T23:51:13.189Z,4.34
2023-03-29T23:54:17.678Z,4.56
2023-03-29T23:57:22.318Z,4.15
